Wetterdaten: Woche 18.12.17 - 24.12.17 (KW51)
Datum Zeit Temp. A. Feuchte A. Luftdruck Regen Wind Richtung Taupunkt Windchill Windben
18.12.2017 00:00 0,9 C 81 % 1023,1 hPa 0,0 l/m 2,1 km/h N -1,9 C 0,9 C 8,1 km/h
18.12.2017 01:00 0,1 C 82 % 1023,4 hPa 0,0 l/m 1,0 km/h N -2,7 C 0,1 C 7,6 km/h
18.12.2017 02:00 0,2 C 82 % 1023,6 hPa 0,0 l/m 4,9 km/h N -2,5 C 0,2 C 13,7 km/h
18.12.2017 03:00 0,2 C 80 % 1023,6 hPa 0,0 l/m 1,8 km/h N -2,8 C 0,2 C 8,9 km/h
18.12.2017 04:00 0,0 C 80 % 1023,6 hPa 0,0 l/m 4,1 km/h N -3,0 C 0,0 C 12,5 km/h
18.12.2017 05:00 -0,3 C 80 % 1023,4 hPa 0,0 l/m 2,6 km/h N -3,4 C -0,3 C 10,9 km/h
18.12.2017 06:00 -0,9 C 81 % 1023,8 hPa 0,0 l/m 0,9 km/h N -3,8 C -0,9 C 9,3 km/h
18.12.2017 07:00 -1,1 C 82 % 1024,0 hPa 0,0 l/m 2,6 km/h N -3,8 C -1,1 C 10,5 km/h
18.12.2017 08:00 -0,8 C 82 % 1024,1 hPa 0,0 l/m 5,0 km/h N -3,6 C -0,8 C 13,7 km/h
18.12.2017 09:00 -0,1 C 79 % 1024,6 hPa 0,0 l/m 4,1 km/h N -3,3 C -0,1 C 12,5 km/h
18.12.2017 10:00 0,5 C 76 % 1025,0 hPa 0,0 l/m 5,9 km/h N -3,2 C 0,1 C 14,9 km/h
18.12.2017 11:00 1,1 C 71 % 1024,9 hPa 0,0 l/m 6,5 km/h N -3,6 C 0,8 C 16,5 km/h
18.12.2017 12:00 1,6 C 68 % 1024,7 hPa 0,0 l/m 6,5 km/h N -3,6 C 1,2 C 15,3 km/h
18.12.2017 13:00 1,9 C 67 % 1024,8 hPa 0,0 l/m 5,9 km/h N -3,6 C 1,9 C 15,3 km/h
18.12.2017 14:00 1,9 C 67 % 1025,1 hPa 0,0 l/m 4,4 km/h N -3,5 C 1,9 C 12,9 km/h
18.12.2017 15:00 1,5 C 70 % 1025,5 hPa 0,0 l/m 3,8 km/h N -3,4 C 1,5 C 12,5 km/h
18.12.2017 16:00 1,1 C 72 % 1026,0 hPa 0,0 l/m 2,1 km/h N -3,4 C 1,1 C 8,9 km/h
18.12.2017 17:00 0,5 C 73 % 1026,4 hPa 0,0 l/m 0,6 km/h N -3,7 C 0,5 C 5,2 km/h
18.12.2017 18:00 -0,6 C 75 % 1027,0 hPa 0,0 l/m 0,1 km/h N -4,5 C -0,6 C 2,4 km/h
18.12.2017 19:00 -0,6 C 78 % 1027,6 hPa 0,0 l/m 0,0 km/h N -4,0 C -0,6 C 0,4 km/h
18.12.2017 20:00 0,1 C 77 % 1028,0 hPa 0,0 l/m 0,5 km/h N -3,6 C 0,1 C 2,8 km/h
18.12.2017 21:00 0,3 C 75 % 1028,4 hPa 0,0 l/m 1,4 km/h N -3,6 C 0,3 C 6,4 km/h
18.12.2017 22:00 0,5 C 75 % 1028,8 hPa 0,0 l/m 4,6 km/h N -3,5 C 0,5 C 11,3 km/h
18.12.2017 23:00 0,1 C 77 % 1029,1 hPa 0,0 l/m 3,1 km/h N -3,5 C 0,1 C 9,6 km/h
19.12.2017 00:00 -0,9 C 78 % 1029,0 hPa 0,0 l/m 2,6 km/h N -4,2 C -0,9 C 9,7 km/h
19.12.2017 01:00 -1,4 C 79 % 1029,3 hPa 0,0 l/m 1,8 km/h N -4,6 C -1,4 C 8,9 km/h
19.12.2017 02:00 -1,8 C 79 % 1030,0 hPa 0,0 l/m 2,7 km/h N -4,9 C -1,8 C 9,7 km/h
19.12.2017 03:00 -2,2 C 79 % 1030,5 hPa 0,0 l/m 1,4 km/h N -5,4 C -2,2 C 8,4 km/h
19.12.2017 04:00 -2,7 C 80 % 1030,6 hPa 0,0 l/m 1,1 km/h N -5,8 C -2,7 C 7,6 km/h
19.12.2017 05:00 -3,2 C 80 % 1030,8 hPa 0,0 l/m 0,7 km/h N -6,2 C -3,2 C 6,0 km/h
19.12.2017 06:00 -3,9 C 81 % 1031,4 hPa 0,0 l/m 0,0 km/h N -6,7 C -3,9 C 1,2 km/h
19.12.2017 07:00 -4,5 C 82 % 1032,0 hPa 0,0 l/m 0,0 km/h N -7,1 C -4,5 C 0,8 km/h
19.12.2017 08:00 -3,7 C 82 % 1032,4 hPa 0,0 l/m 0,6 km/h N -6,3 C -3,7 C 4,4 km/h
19.12.2017 09:00 -1,9 C 80 % 1032,5 hPa 0,0 l/m 4,7 km/h N -4,9 C -1,9 C 12,9 km/h
19.12.2017 10:00 -0,3 C 73 % 1032,7 hPa 0,0 l/m 5,4 km/h N -4,6 C -0,3 C 18,1 km/h
19.12.2017 11:00 0,6 C 69 % 1032,6 hPa 0,0 l/m 6,7 km/h N -4,5 C 0,1 C 18,1 km/h
19.12.2017 12:00 2,0 C 61 % 1032,6 hPa 0,0 l/m 8,0 km/h N -4,7 C 0,5 C 20,5 km/h
19.12.2017 13:00 2,3 C 58 % 1032,1 hPa 0,0 l/m 6,8 km/h N -5,2 C 1,8 C 18,9 km/h
19.12.2017 14:00 1,8 C 61 % 1031,8 hPa 0,0 l/m 5,9 km/h N -5,0 C 1,6 C 16,9 km/h
19.12.2017 15:00 0,8 C 65 % 1031,9 hPa 0,0 l/m 3,5 km/h N -5,1 C 0,8 C 13,3 km/h
19.12.2017 16:00 -0,1 C 69 % 1032,3 hPa 0,0 l/m 3,0 km/h N -5,0 C -0,1 C 12,8 km/h
19.12.2017 17:00 0,2 C 71 % 1032,4 hPa 0,0 l/m 3,9 km/h N -4,5 C 0,2 C 12,5 km/h
19.12.2017 18:00 0,3 C 68 % 1032,1 hPa 0,0 l/m 3,0 km/h N -4,9 C 0,3 C 13,3 km/h
19.12.2017 19:00 0,5 C 67 % 1031,9 hPa 0,0 l/m 4,5 km/h N -4,9 C 0,5 C 14,9 km/h
19.12.2017 20:00 0,8 C 68 % 1031,8 hPa 0,0 l/m 5,6 km/h N -4,4 C 0,3 C 18,9 km/h
19.12.2017 21:00 0,4 C 75 % 1032,0 hPa 0,0 l/m 2,1 km/h N -3,5 C 0,4 C 13,3 km/h
19.12.2017 22:00 0,4 C 78 % 1031,9 hPa 0,0 l/m 3,7 km/h N -3,0 C 0,4 C 14,5 km/h
19.12.2017 23:00 0,6 C 78 % 1032,0 hPa 0,0 l/m 5,7 km/h N -2,8 C 0,5 C 18,1 km/h
20.12.2017 00:00 0,7 C 78 % 1032,0 hPa 0,0 l/m 7,4 km/h N -2,7 C -0,3 C 17,7 km/h
20.12.2017 01:00 0,9 C 78 % 1031,8 hPa 0,0 l/m 4,8 km/h N -2,5 C 0,9 C 14,1 km/h
20.12.2017 02:00 1,1 C 78 % 1031,8 hPa 0,0 l/m 4,2 km/h N -2,3 C 1,0 C 16,9 km/h
20.12.2017 03:00 1,3 C 78 % 1031,9 hPa 0,0 l/m 5,2 km/h N -2,1 C 1,2 C 17,3 km/h
20.12.2017 04:00 1,3 C 79 % 1032,0 hPa 0,0 l/m 5,9 km/h N -1,9 C 1,3 C 16,1 km/h
20.12.2017 05:00 1,3 C 80 % 1032,1 hPa 0,0 l/m 3,9 km/h N -1,8 C 1,3 C 11,3 km/h
20.12.2017 06:00 1,3 C 81 % 1032,4 hPa 0,0 l/m 1,8 km/h N -1,6 C 1,3 C 7,6 km/h
20.12.2017 07:00 1,3 C 81 % 1032,8 hPa 0,0 l/m 1,2 km/h N -1,6 C 1,3 C 7,6 km/h
20.12.2017 08:00 1,3 C 81 % 1033,5 hPa 0,0 l/m 2,9 km/h N -1,6 C 1,3 C 9,6 km/h
20.12.2017 09:00 1,4 C 81 % 1034,1 hPa 0,0 l/m 4,9 km/h N -1,5 C 1,4 C 13,7 km/h
20.12.2017 10:00 1,7 C 81 % 1033,9 hPa 0,0 l/m 5,5 km/h N -1,2 C 1,7 C 12,9 km/h
20.12.2017 11:00 2,0 C 80 % 1033,6 hPa 0,0 l/m 5,9 km/h N -1,0 C 1,9 C 15,3 km/h
20.12.2017 12:00 2,5 C 79 % 1033,3 hPa 0,0 l/m 5,8 km/h N -0,7 C 2,5 C 16,9 km/h
20.12.2017 13:00 2,8 C 77 % 1032,9 hPa 0,0 l/m 4,7 km/h N -0,8 C 2,8 C 16,5 km/h
20.12.2017 14:00 2,7 C 77 % 1032,6 hPa 0,0 l/m 3,7 km/h N -1,0 C 2,7 C 13,3 km/h
20.12.2017 15:00 2,6 C 77 % 1032,5 hPa 0,0 l/m 5,2 km/h N -1,0 C 2,6 C 16,5 km/h
20.12.2017 16:00 2,3 C 79 % 1033,1 hPa 0,0 l/m 4,4 km/h N -1,1 C 2,3 C 15,3 km/h
20.12.2017 17:00 2,2 C 80 % 1033,4 hPa 0,0 l/m 3,9 km/h N -0,9 C 2,2 C 12,1 km/h
20.12.2017 18:00 2,3 C 80 % 1033,4 hPa 0,0 l/m 6,4 km/h N -0,8 C 2,1 C 16,5 km/h
20.12.2017 19:00 2,5 C 79 % 1033,6 hPa 0,0 l/m 6,4 km/h N -0,8 C 2,2 C 16,9 km/h
20.12.2017 20:00 2,4 C 80 % 1033,7 hPa 0,0 l/m 6,3 km/h N -0,7 C 2,1 C 16,9 km/h
20.12.2017 21:00 2,3 C 80 % 1033,8 hPa 0,0 l/m 5,4 km/h N -0,7 C 2,3 C 16,5 km/h
20.12.2017 22:00 2,3 C 81 % 1033,8 hPa 0,0 l/m 4,0 km/h N -0,6 C 2,3 C 15,7 km/h
20.12.2017 23:00 2,5 C 80 % 1033,9 hPa 0,0 l/m 4,8 km/h N -0,6 C 2,5 C 14,1 km/h
21.12.2017 00:00 2,6 C 80 % 1033,7 hPa 0,0 l/m 4,3 km/h N -0,6 C 2,6 C 14,1 km/h
21.12.2017 01:00 2,4 C 79 % 1033,5 hPa 0,0 l/m 3,4 km/h N -0,9 C 2,4 C 13,3 km/h
21.12.2017 02:00 2,8 C 74 % 1033,0 hPa 0,0 l/m 5,6 km/h N -1,4 C 2,7 C 19,3 km/h
21.12.2017 03:00 3,4 C 69 % 1032,7 hPa 0,0 l/m 7,9 km/h N -1,7 C 2,0 C 21,3 km/h
21.12.2017 04:00 2,7 C 76 % 1032,7 hPa 0,0 l/m 5,8 km/h N -1,1 C 2,5 C 17,7 km/h
21.12.2017 05:00 2,1 C 80 % 1032,7 hPa 0,0 l/m 1,2 km/h N -0,9 C 2,1 C 8,9 km/h
21.12.2017 06:00 2,9 C 80 % 1032,5 hPa 0,0 l/m 5,2 km/h N -0,3 C 2,3 C 15,7 km/h
21.12.2017 07:00 3,8 C 76 % 1032,3 hPa 0,0 l/m 8,4 km/h N -0,1 C 2,0 C 22,9 km/h
21.12.2017 08:00 4,2 C 75 % 1032,2 hPa 0,0 l/m 8,3 km/h N 0,1 C 2,6 C 24,9 km/h
21.12.2017 09:00 4,7 C 74 % 1032,1 hPa 0,0 l/m 8,6 km/h N 0,3 C 2,8 C 24,1 km/h
21.12.2017 10:00 4,4 C 78 % 1032,1 hPa 0,3 l/m 9,3 km/h N 0,8 C 1,9 C 24,1 km/h
21.12.2017 11:00 3,9 C 81 % 1031,6 hPa 0,3 l/m 7,3 km/h N 0,9 C 3,0 C 24,9 km/h
21.12.2017 12:00 4,3 C 81 % 1030,5 hPa 0,0 l/m 6,7 km/h N 1,3 C 3,8 C 23,3 km/h
21.12.2017 13:00 5,0 C 79 % 1029,4 hPa 0,0 l/m 9,9 km/h N 1,6 C 2,1 C 30,2 km/h
21.12.2017 14:00 4,7 C 80 % 1028,6 hPa 0,8 l/m 12,1 km/h N 1,5 C 0,4 C 36,2 km/h
21.12.2017 15:00 4,6 C 81 % 1028,3 hPa 1,6 l/m 13,4 km/h N 1,7 C -0,5 C 34,6 km/h
21.12.2017 16:00 4,4 C 83 % 1028,4 hPa 3,4 l/m 12,8 km/h N 1,7 C -0,4 C 33,8 km/h
21.12.2017 17:00 4,6 C 83 % 1028,7 hPa 1,8 l/m 12,4 km/h N 2,0 C 0,1 C 32,6 km/h
21.12.2017 18:00 4,5 C 83 % 1029,0 hPa 1,8 l/m 11,9 km/h N 1,9 C 0,3 C 31,4 km/h
21.12.2017 19:00 4,2 C 83 % 1029,1 hPa 0,5 l/m 11,5 km/h N 1,6 C 0,2 C 26,5 km/h
21.12.2017 20:00 4,4 C 83 % 1029,1 hPa 0,0 l/m 11,6 km/h N 1,7 C 0,3 C 29,8 km/h
21.12.2017 21:00 4,6 C 82 % 1028,8 hPa 0,0 l/m 12,1 km/h N 1,8 C 0,3 C 31,8 km/h
21.12.2017 22:00 4,9 C 82 % 1029,6 hPa 0,0 l/m 13,3 km/h N 2,1 C -0,0 C 31,8 km/h
21.12.2017 23:00 4,9 C 81 % 1029,8 hPa 0,3 l/m 11,9 km/h N 1,8 C 0,8 C 30,6 km/h
22.12.2017 00:00 4,9 C 80 % 1029,7 hPa 0,0 l/m 11,0 km/h N 1,7 C 1,4 C 30,2 km/h
22.12.2017 01:00 4,8 C 80 % 1030,1 hPa 0,0 l/m 10,9 km/h N 1,7 C 1,3 C 28,6 km/h
22.12.2017 02:00 4,9 C 81 % 1030,2 hPa 0,0 l/m 11,5 km/h N 1,9 C 1,0 C 31,4 km/h
22.12.2017 03:00 5,3 C 81 % 1030,2 hPa 0,0 l/m 11,0 km/h N 2,3 C 1,7 C 29,8 km/h
22.12.2017 04:00 5,6 C 80 % 1030,1 hPa 0,0 l/m 10,7 km/h N 2,5 C 2,3 C 29,8 km/h
22.12.2017 05:00 5,9 C 79 % 1030,0 hPa 0,0 l/m 9,7 km/h N 2,5 C 3,3 C 28,2 km/h
22.12.2017 06:00 6,0 C 79 % 1030,0 hPa 0,0 l/m 7,3 km/h N 2,6 C 5,0 C 21,7 km/h
22.12.2017 07:00 6,3 C 79 % 1030,1 hPa 0,0 l/m 8,2 km/h N 2,9 C 4,8 C 23,3 km/h
22.12.2017 08:00 6,4 C 78 % 1030,1 hPa 0,0 l/m 7,7 km/h N 2,9 C 5,3 C 21,7 km/h
22.12.2017 09:00 6,6 C 79 % 1030,6 hPa 0,0 l/m 3,7 km/h N 3,2 C 6,6 C 16,5 km/h
22.12.2017 10:00 7,0 C 77 % 1030,5 hPa 0,0 l/m 3,2 km/h N 3,3 C 7,0 C 12,9 km/h
22.12.2017 11:00 7,6 C 75 % 1030,1 hPa 0,0 l/m 5,6 km/h N 3,4 C 7,3 C 20,1 km/h
22.12.2017 12:00 8,0 C 75 % 1029,3 hPa 0,0 l/m 8,0 km/h N 3,7 C 6,7 C 26,5 km/h
22.12.2017 13:00 7,9 C 75 % 1028,8 hPa 0,0 l/m 8,5 km/h N 3,8 C 6,4 C 24,9 km/h
22.12.2017 14:00 7,9 C 76 % 1028,2 hPa 0,0 l/m 8,9 km/h N 3,9 C 6,0 C 29,0 km/h
22.12.2017 15:00 7,6 C 76 % 1028,2 hPa 0,0 l/m 8,3 km/h N 3,6 C 5,9 C 23,3 km/h
22.12.2017 16:00 7,2 C 78 % 1028,7 hPa 0,0 l/m 8,2 km/h N 3,5 C 5,8 C 23,7 km/h
22.12.2017 17:00 6,9 C 78 % 1028,6 hPa 0,0 l/m 5,8 km/h N 3,3 C 6,4 C 18,9 km/h
22.12.2017 18:00 6,8 C 79 % 1028,9 hPa 0,0 l/m 5,6 km/h N 3,4 C 6,4 C 18,5 km/h
22.12.2017 19:00 6,8 C 79 % 1028,9 hPa 0,0 l/m 8,6 km/h N 3,4 C 5,1 C 21,3 km/h
22.12.2017 20:00 7,0 C 77 % 1028,6 hPa 0,0 l/m 9,1 km/h N 3,2 C 4,8 C 25,8 km/h
22.12.2017 21:00 7,0 C 76 % 1028,7 hPa 0,0 l/m 11,3 km/h N 3,1 C 3,5 C 30,2 km/h
22.12.2017 22:00 7,1 C 75 % 1029,0 hPa 0,0 l/m 10,6 km/h N 2,9 C 4,0 C 28,2 km/h
22.12.2017 23:00 6,7 C 77 % 1029,6 hPa 0,0 l/m 5,9 km/h N 2,9 C 6,4 C 22,1 km/h
23.12.2017 00:00 6,1 C 78 % 1029,7 hPa 0,0 l/m 5,5 km/h N 2,5 C 6,0 C 20,9 km/h
23.12.2017 01:00 5,8 C 78 % 1029,8 hPa 0,0 l/m 4,6 km/h N 2,2 C 5,8 C 20,1 km/h
23.12.2017 02:00 5,8 C 77 % 1029,8 hPa 0,0 l/m 5,1 km/h N 2,2 C 5,8 C 19,3 km/h
23.12.2017 03:00 5,8 C 77 % 1029,1 hPa 0,0 l/m 5,9 km/h N 2,0 C 5,5 C 19,7 km/h
23.12.2017 04:00 6,1 C 75 % 1028,3 hPa 0,0 l/m 7,1 km/h N 2,0 C 5,5 C 23,3 km/h
23.12.2017 05:00 6,4 C 75 % 1028,4 hPa 0,0 l/m 7,8 km/h N 2,3 C 5,2 C 25,3 km/h
23.12.2017 06:00 6,6 C 76 % 1028,6 hPa 0,0 l/m 8,7 km/h N 2,7 C 4,8 C 23,7 km/h
23.12.2017 07:00 6,9 C 75 % 1028,0 hPa 0,0 l/m 9,0 km/h N 2,8 C 4,8 C 26,1 km/h
23.12.2017 08:00 7,0 C 75 % 1028,2 hPa 0,0 l/m 10,3 km/h N 2,9 C 4,1 C 27,8 km/h
23.12.2017 09:00 7,3 C 75 % 1028,2 hPa 0,0 l/m 10,1 km/h N 3,1 C 4,6 C 29,4 km/h
23.12.2017 10:00 7,7 C 72 % 1028,4 hPa 0,0 l/m 10,5 km/h N 3,0 C 4,8 C 29,3 km/h
23.12.2017 11:00 8,1 C 70 % 1028,2 hPa 0,0 l/m 11,9 km/h N 2,9 C 4,4 C 31,0 km/h
23.12.2017 12:00 8,6 C 69 % 1027,3 hPa 0,0 l/m 9,7 km/h N 3,3 C 6,3 C 29,0 km/h
23.12.2017 13:00 9,1 C 68 % 1026,2 hPa 0,0 l/m 13,0 km/h N 3,6 C 5,0 C 33,4 km/h
23.12.2017 14:00 9,6 C 68 % 1025,1 hPa 0,0 l/m 19,7 km/h N 3,9 C 2,9 C 47,9 km/h
23.12.2017 15:00 9,4 C 68 % 1024,7 hPa 0,0 l/m 18,6 km/h N 3,8 C 3,0 C 45,1 km/h
23.12.2017 16:00 9,4 C 70 % 1023,9 hPa 0,0 l/m 19,5 km/h N 4,1 C 2,6 C 48,7 km/h
23.12.2017 17:00 9,4 C 70 % 1023,7 hPa 0,0 l/m 17,0 km/h N 4,1 C 3,6 C 43,1 km/h
23.12.2017 18:00 9,5 C 69 % 1023,3 hPa 0,0 l/m 20,1 km/h N 4,0 C 2,7 C 47,5 km/h
23.12.2017 19:00 9,6 C 69 % 1023,4 hPa 0,0 l/m 17,9 km/h N 4,1 C 3,6 C 48,7 km/h
23.12.2017 20:00 9,6 C 69 % 1023,2 hPa 0,0 l/m 19,8 km/h N 4,2 C 2,9 C 46,7 km/h
23.12.2017 21:00 9,9 C 69 % 1023,0 hPa 0,0 l/m 21,2 km/h N 4,3 C 2,7 C 52,7 km/h
23.12.2017 22:00 9,1 C 74 % 1023,1 hPa 0,3 l/m 17,9 km/h N 4,7 C 2,9 C 53,1 km/h
23.12.2017 23:00 8,8 C 76 % 1023,3 hPa 0,3 l/m 17,1 km/h N 4,9 C 2,8 C 42,6 km/h
24.12.2017 00:00 9,2 C 73 % 1023,5 hPa 0,3 l/m 19,6 km/h N 4,6 C 2,4 C 45,0 km/h
24.12.2017 01:00 9,2 C 72 % 1024,1 hPa 0,0 l/m 11,2 km/h N 4,3 C 6,1 C 32,2 km/h
24.12.2017 02:00 9,2 C 70 % 1023,9 hPa 0,0 l/m 11,1 km/h N 4,0 C 6,1 C 31,0 km/h
24.12.2017 03:00 8,8 C 70 % 1023,7 hPa 0,0 l/m 10,7 km/h N 3,6 C 5,9 C 33,4 km/h
24.12.2017 04:00 8,6 C 69 % 1023,3 hPa 0,0 l/m 12,9 km/h N 3,3 C 4,4 C 36,2 km/h
24.12.2017 05:00 8,4 C 69 % 1023,3 hPa 0,0 l/m 12,0 km/h N 3,0 C 4,7 C 36,2 km/h
24.12.2017 06:00 8,3 C 69 % 1023,0 hPa 0,0 l/m 11,8 km/h N 2,9 C 4,7 C 40,6 km/h
24.12.2017 07:00 8,2 C 68 % 1022,8 hPa 0,0 l/m 11,9 km/h N 2,7 C 4,5 C 36,6 km/h
24.12.2017 08:00 8,3 C 67 % 1023,0 hPa 0,0 l/m 11,9 km/h N 2,4 C 4,6 C 36,6 km/h
24.12.2017 09:00 8,6 C 65 % 1023,3 hPa 0,0 l/m 11,0 km/h N 2,4 C 5,5 C 37,0 km/h
24.12.2017 10:00 8,9 C 65 % 1023,3 hPa 0,0 l/m 17,1 km/h N 2,6 C 3,0 C 42,7 km/h
24.12.2017 11:00 9,6 C 63 % 1022,9 hPa 0,0 l/m 17,4 km/h N 2,8 C 3,8 C 39,8 km/h
24.12.2017 12:00 10,4 C 61 % 1022,8 hPa 0,0 l/m 12,0 km/h N 3,1 C 6,9 C 35,8 km/h
24.12.2017 13:00 9,8 C 63 % 1022,7 hPa 0,0 l/m 14,1 km/h N 3,0 C 5,3 C 35,8 km/h
24.12.2017 14:00 9,1 C 64 % 1022,7 hPa 0,0 l/m 14,6 km/h N 2,5 C 4,2 C 32,6 km/h
24.12.2017 15:00 9,0 C 62 % 1022,9 hPa 0,0 l/m 11,2 km/h N 2,0 C 5,8 C 29,0 km/h
24.12.2017 16:00 8,3 C 64 % 1022,7 hPa 0,0 l/m 9,4 km/h N 1,9 C 6,3 C 27,0 km/h
24.12.2017 17:00 8,8 C 61 % 1022,4 hPa 0,0 l/m 10,8 km/h N 1,8 C 5,9 C 28,6 km/h
24.12.2017 18:00 9,6 C 58 % 1022,2 hPa 0,0 l/m 12,8 km/h N 1,6 C 5,7 C 31,4 km/h
24.12.2017 19:00 9,3 C 59 % 1022,1 hPa 0,0 l/m 12,7 km/h N 1,6 C 5,4 C 35,8 km/h
24.12.2017 20:00 9,0 C 58 % 1022,0 hPa 0,0 l/m 4,0 km/h N 1,2 C 9,0 C 18,5 km/h
24.12.2017 21:00 8,5 C 61 % 1022,1 hPa 0,0 l/m 6,5 km/h N 1,3 C 7,7 C 23,4 km/h
24.12.2017 22:00 8,4 C 62 % 1022,3 hPa 0,0 l/m 9,4 km/h N 1,6 C 6,2 C 26,9 km/h
24.12.2017 23:00 7,8 C 65 % 1022,8 hPa 0,0 l/m 9,9 km/h N 1,7 C 5,3 C 28,6 km/h
Min-Datum _ 19.12.17 19.12.17 24.12.17 - 18.12.17 - 19.12.17 19.12.17 18.12.17
_ Min-Zeit 07:15 13:00 20:30 - 18:00 - 07:15 07:15 18:00
Minimum _ -4,6 C 56 % 1021,9 hPa - 0,0 km/h - -7,4 C -4,6 C 0,0 km/h
Max-Datum _ 24.12.17 21.12.17 20.12.17 21.12.17 23.12.17 - 23.12.17 24.12.17 23.12.17
_ Max-Zeit 12:15 22:00 09:00 16:00 20:45 - 23:00 20:00 21:15
Maximum _ 10,5 C 86 % 1034,1 hPa 3,4 l/m 23,3 km/h
N
- 4,9 C 9,1 C 61,2 km/h
N
Durchschnitt _ 4,1 C 75 % 1028,5 hPa #11,4 l/m 7,6 km/h N -0,0 C 2,5 C 22,1 km/h